Time;durP1;ratioP1;P1;durP2;ratioP2;P2;SDS_P1;SDS_P2;PMS_P1;PMS_P2;Temp;Humidity;BMP_temperature;BMP_pressure;BME280_temperature;BME280_humidity;BME280_pressure;Samples;Min_cycle;Max_cycle;Signal;HPM_P1;HPM_P2
2021/06/02 00:00:15;;;;;;;2.40;1.83;;;;;;;24.91;34.45;101598.50;4160150;28;20113;-45
2021/06/02 00:02:16;;;;;;;3.13;2.25;;;;;;;24.99;34.03;101599.78;4165069;28;20033;-47
2021/06/02 00:04:19;;;;;;;2.63;2.17;;;;;;;24.90;34.34;101597.66;4163022;28;20358;-46
2021/06/02 00:06:21;;;;;;;2.55;2.35;;;;;;;24.86;34.49;101595.78;4163737;28;20040;-46
2021/06/02 00:08:24;;;;;;;3.42;2.17;;;;;;;24.88;34.37;101602.72;4158397;28;20041;-45
2021/06/02 00:10:25;;;;;;;2.15;1.92;;;;;;;24.79;34.26;101590.53;4164442;28;20024;-45
2021/06/02 00:12:26;;;;;;;2.40;2.20;;;;;;;24.76;34.42;101599.53;4167847;28;20067;-45
2021/06/02 00:14:27;;;;;;;3.13;2.30;;;;;;;24.82;34.27;101603.94;4158816;28;20049;-45
2021/06/02 00:16:27;;;;;;;2.65;2.25;;;;;;;24.57;34.35;101563.09;4167051;28;20116;-45
2021/06/02 00:18:28;;;;;;;2.45;2.10;;;;;;;24.68;34.72;101597.41;4169946;28;20037;-45
2021/06/02 00:20:28;;;;;;;2.55;2.30;;;;;;;24.73;34.15;101603.78;4169412;28;20091;-45
2021/06/02 00:22:29;;;;;;;2.50;2.30;;;;;;;24.80;34.13;101609.00;4162463;28;20601;-45
2021/06/02 00:24:29;;;;;;;3.45;2.35;;;;;;;24.79;34.11;101601.72;4174319;28;20052;-46
2021/06/02 00:26:34;;;;;;;4.35;2.47;;;;;;;24.57;34.49;101600.31;4164035;28;20067;-47
2021/06/02 00:28:35;;;;;;;2.58;1.92;;;;;;;24.76;34.22;101605.13;4161498;28;20082;-48
2021/06/02 00:30:38;;;;;;;2.40;2.20;;;;;;;24.76;34.36;101610.72;4161449;28;20072;-45
2021/06/02 00:32:39;;;;;;;3.22;2.40;;;;;;;24.71;34.36;101606.03;4164086;28;20168;-48
2021/06/02 00:34:41;;;;;;;2.65;2.45;;;;;;;24.71;34.06;101602.41;4161766;28;20029;-44
2021/06/02 00:36:43;;;;;;;2.40;2.20;;;;;;;24.74;34.23;101610.22;4164731;28;20037;-44
2021/06/02 00:38:45;;;;;;;2.88;2.35;;;;;;;24.68;34.09;101601.03;4162009;28;20075;-46
2021/06/02 00:40:50;;;;;;;3.83;2.17;;;;;;;24.67;34.31;101604.16;4166065;28;20087;-46
2021/06/02 00:42:52;;;;;;;2.67;2.15;;;;;;;24.59;34.23;101608.44;4167507;28;20435;-47
2021/06/02 00:44:54;;;;;;;2.65;2.38;;;;;;;24.56;34.30;101609.00;4168171;28;20487;-45
2021/06/02 00:46:57;;;;;;;2.00;1.90;;;;;;;24.64;34.36;101614.00;4163174;28;20061;-44
2021/06/02 00:49:00;;;;;;;2.90;2.45;;;;;;;24.53;34.25;101607.66;4166873;28;20559;-46
2021/06/02 00:51:00;;;;;;;4.93;2.60;;;;;;;24.33;34.81;101610.69;4165073;28;20020;-45
2021/06/02 00:53:02;;;;;;;5.28;2.63;;;;;;;24.46;34.35;101600.78;4166127;28;20033;-46
2021/06/02 00:55:03;;;;;;;2.65;2.42;;;;;;;24.45;34.51;101604.69;4162671;28;20037;-47
2021/06/02 00:57:16;;;;;;;2.67;2.47;;;;;;;24.49;34.27;101602.97;4160806;28;20129;-46
2021/06/02 00:59:50;;;;;;;3.63;2.33;;;;;;;24.44;34.44;101606.66;4160767;28;20506;-45
2021/06/02 01:01:51;;;;;;;2.50;2.30;;;;;;;24.46;34.26;101598.78;4159755;28;20026;-45
2021/06/02 01:03:54;;;;;;;3.97;2.35;;;;;;;24.47;34.39;101594.03;4161638;28;20463;-48
2021/06/02 01:05:56;;;;;;;4.65;2.42;;;;;;;24.48;34.39;101592.91;4162970;28;20480;-47
2021/06/02 01:08:02;;;;;;;2.60;2.40;;;;;;;24.37;34.42;101590.22;4163913;28;20122;-49
2021/06/02 01:10:03;;;;;;;2.50;2.30;;;;;;;24.39;34.50;101589.91;4167715;28;20028;-47
2021/06/02 01:12:04;;;;;;;4.72;2.45;;;;;;;24.13;35.03;101595.84;4166323;28;20091;-46
2021/06/02 01:14:04;;;;;;;4.28;2.53;;;;;;;24.35;34.55;101586.91;4167105;28;20040;-45
2021/06/02 01:16:07;;;;;;;3.17;2.22;;;;;;;24.35;34.61;101591.66;4169554;28;20036;-45
2021/06/02 01:18:09;;;;;;;3.45;2.22;;;;;;;24.27;34.54;101589.50;4164146;28;20479;-46
2021/06/02 01:20:11;;;;;;;2.85;2.45;;;;;;;24.27;34.51;101587.56;4173699;28;20036;-48
2021/06/02 01:22:11;;;;;;;5.85;2.28;;;;;;;24.29;34.50;101581.66;4164973;28;20712;-46
2021/06/02 01:24:12;;;;;;;5.90;2.53;;;;;;;24.27;34.33;101589.50;4165117;28;20045;-46
2021/06/02 01:26:13;;;;;;;3.03;2.33;;;;;;;24.26;34.64;101576.69;4164328;28;20060;-46
2021/06/02 01:28:13;;;;;;;3.75;2.63;;;;;;;24.25;34.55;101584.22;4164411;28;20033;-44
2021/06/02 01:30:17;;;;;;;2.92;2.40;;;;;;;24.24;34.70;101585.38;4161629;28;20063;-48
2021/06/02 01:32:42;;;;;;;3.90;2.45;;;;;;;24.20;34.44;101576.72;4162373;28;20030;-46
2021/06/02 01:35:25;;;;;;;2.70;2.45;;;;;;;24.18;34.61;101567.81;4166021;28;20052;-46
2021/06/02 01:38:03;;;;;;;3.00;2.40;;;;;;;24.19;34.67;101580.66;4166904;28;20033;-45
2021/06/02 01:40:31;;;;;;;3.08;2.35;;;;;;;24.17;34.53;101574.50;4160739;28;20115;-44
2021/06/02 01:43:05;;;;;;;4.00;2.42;;;;;;;24.07;34.68;101574.66;4165619;28;20060;-45
2021/06/02 01:45:27;;;;;;;2.20;2.00;;;;;;;24.08;35.01;101573.50;4162911;28;20259;-44
2021/06/02 01:48:03;;;;;;;2.85;2.42;;;;;;;24.10;34.83;101571.25;4166270;28;20037;-44
2021/06/02 01:50:19;;;;;;;2.65;2.42;;;;;;;24.10;34.74;101573.22;4166310;28;20119;-45
2021/06/02 01:52:40;;;;;;;3.15;2.63;;;;;;;24.02;34.52;101567.16;4168318;28;20040;-45
2021/06/02 01:55:23;;;;;;;2.47;2.15;;;;;;;24.04;34.74;101569.66;4166260;28;20037;-45
2021/06/02 01:58:01;;;;;;;3.97;2.28;;;;;;;24.04;34.76;101567.69;4161190;28;20079;-46
2021/06/02 02:00:32;;;;;;;3.00;2.22;;;;;;;23.98;34.66;101571.66;4162360;28;20354;-46
2021/06/02 02:03:10;;;;;;;4.78;2.38;;;;;;;23.95;35.08;101560.22;4157262;28;20033;-45
2021/06/02 02:05:50;;;;;;;3.60;2.08;;;;;;;23.91;35.12;101562.75;4147531;28;20037;-46
2021/06/02 02:07:59;;;;;;;2.53;2.33;;;;;;;23.88;35.10;101560.56;4143156;28;20098;-45
2021/06/02 02:10:11;;;;;;;2.58;2.38;;;;;;;23.93;34.95;101568.06;4166490;28;20601;-44
2021/06/02 02:12:28;;;;;;;2.58;2.38;;;;;;;23.93;34.83;101556.88;4162669;28;20467;-45
2021/06/02 02:14:53;;;;;;;2.80;2.50;;;;;;;23.91;35.09;101553.53;4169274;28;20411;-47
2021/06/02 02:17:14;;;;;;;2.65;2.45;;;;;;;23.86;34.91;101558.06;4167953;28;20118;-47
2021/06/02 02:19:43;;;;;;;2.47;2.28;;;;;;;23.87;35.01;101551.34;4167626;28;20044;-45
2021/06/02 02:21:53;;;;;;;2.78;2.58;;;;;;;23.84;35.08;101565.91;4164951;28;20028;-46
2021/06/02 02:24:12;;;;;;;;;;;;;;;23.83;34.95;101560.63;4167412;28;20025;-46
2021/06/02 02:26:29;;;;;;;4.13;2.70;;;;;;;23.84;34.80;101557.53;4168810;28;20286;-45
2021/06/02 02:28:40;;;;;;;2.40;2.20;;;;;;;23.75;34.91;101550.91;4160315;28;20022;-45
2021/06/02 02:31:06;;;;;;;4.93;2.55;;;;;;;23.80;34.90;101548.06;4166041;28;20041;-46
2021/06/02 02:33:28;;;;;;;3.25;2.70;;;;;;;23.75;35.09;101534.16;4164308;28;20037;-46
2021/06/02 02:36:02;;;;;;;2.65;2.45;;;;;;;23.70;34.82;101534.22;4166446;28;20059;-47
2021/06/02 02:38:30;;;;;;;2.47;2.28;;;;;;;23.72;35.12;101537.53;4161742;28;20502;-48
2021/06/02 02:40:43;;;;;;;2.60;2.40;;;;;;;23.68;35.27;101533.66;4164109;28;20201;-47
2021/06/02 02:42:50;;;;;;;6.13;2.72;;;;;;;23.57;35.08;101518.13;4167893;28;20028;-47
2021/06/02 02:45:07;;;;;;;3.17;2.50;;;;;;;23.68;35.11;101526.13;4152270;28;20118;-46
2021/06/02 02:47:17;;;;;;;3.45;2.63;;;;;;;23.65;35.34;101531.44;4166832;28;20032;-46
2021/06/02 02:49:26;;;;;;;5.07;2.47;;;;;;;23.61;35.15;101533.19;4151869;28;20286;-45
2021/06/02 02:51:42;;;;;;;2.50;2.30;;;;;;;23.56;35.35;101534.06;4162414;28;20060;-45
2021/06/02 02:54:03;;;;;;;2.38;1.95;;;;;;;23.57;35.08;101529.31;4168707;28;20399;-45
2021/06/02 02:56:10;;;;;;;4.45;2.50;;;;;;;23.66;35.04;101535.91;4162448;28;20403;-45
2021/06/02 02:58:38;;;;;;;2.85;2.63;;;;;;;23.59;35.11;101533.47;4162755;28;20032;-45
2021/06/02 03:00:43;;;;;;;3.40;2.55;;;;;;;23.61;35.22;101535.97;4169909;28;20589;-45
2021/06/02 03:02:57;;;;;;;3.85;2.20;;;;;;;23.49;35.23;101526.00;4166856;28;20036;-46
2021/06/02 03:05:00;;;;;;;2.75;2.40;;;;;;;23.51;35.07;101543.34;4169927;28;20361;-46
2021/06/02 03:07:05;;;;;;;3.78;2.70;;;;;;;23.50;35.49;101527.69;4163078;28;20040;-45
2021/06/02 03:09:29;;;;;;;3.60;2.78;;;;;;;23.40;35.43;101533.38;4162583;28;20090;-45
2021/06/02 03:11:46;;;;;;;2.70;2.50;;;;;;;23.44;35.11;101530.84;4163465;28;20026;-44
2021/06/02 03:14:08;;;;;;;3.53;2.80;;;;;;;23.43;35.41;101529.97;4167984;28;20028;-43
2021/06/02 03:16:14;;;;;;;2.92;2.47;;;;;;;23.44;35.41;101526.06;4164048;28;20468;-43
2021/06/02 03:18:29;;;;;;;2.75;2.45;;;;;;;23.40;35.36;101529.75;4162245;28;20480;-44
2021/06/02 03:20:40;;;;;;;3.00;2.70;;;;;;;23.35;35.46;101524.22;4163481;28;20083;-44
2021/06/02 03:22:52;;;;;;;4.53;2.60;;;;;;;23.34;35.59;101528.94;4162281;28;20026;-44
2021/06/02 03:25:02;;;;;;;2.72;2.53;;;;;;;23.13;35.52;101486.38;4162680;28;20457;-43
2021/06/02 03:27:05;;;;;;;3.42;3.13;;;;;;;23.32;35.38;101520.03;4163118;28;20029;-44
2021/06/02 03:29:20;;;;;;;4.70;2.58;;;;;;;23.28;35.66;101525.34;4161631;28;20044;-45
2021/06/02 03:31:53;;;;;;;4.53;2.30;;;;;;;23.28;35.67;101524.50;4160267;28;20044;-45
2021/06/02 03:35:01;;;;;;;4.53;3.17;;;;;;;23.32;35.71;101532.03;4168211;28;20033;-45
2021/06/02 03:37:23;;;;;;;3.50;3.20;;;;;;;23.24;35.56;101529.03;4049301;28;20105;-47
2021/06/02 03:39:44;;;;;;;3.83;2.67;;;;;;;23.22;35.61;101523.72;4168598;28;20614;-44
2021/06/02 03:42:08;;;;;;;3.17;2.88;;;;;;;23.23;35.71;101527.34;4163201;28;20047;-44
2021/06/02 03:44:41;;;;;;;2.92;2.60;;;;;;;23.19;35.60;101526.25;4162577;28;20087;-45
2021/06/02 03:47:17;;;;;;;3.60;3.30;;;;;;;23.14;35.64;101518.75;4129360;28;20133;-45
2021/06/02 03:49:32;;;;;;;3.25;2.95;;;;;;;23.15;35.78;101526.84;4161840;28;20033;-46
2021/06/02 03:51:37;;;;;;;2.70;2.50;;;;;;;23.13;35.77;101520.72;4165278;28;20041;-46
2021/06/02 03:53:51;;;;;;;3.10;2.80;;;;;;;23.16;35.55;101524.91;4164019;28;20569;-46
2021/06/02 03:56:24;;;;;;;3.47;3.08;;;;;;;23.12;35.65;101518.22;4170615;28;20104;-44
2021/06/02 03:58:43;;;;;;;3.72;3.33;;;;;;;23.21;35.53;101524.84;4158934;28;20596;-46
2021/06/02 04:00:51;;;;;;;3.90;2.85;;;;;;;23.07;35.82;101524.69;4161424;28;20021;-44
2021/06/02 04:03:05;;;;;;;3.70;3.40;;;;;;;23.13;35.65;101520.72;4163642;28;20049;-45
2021/06/02 04:05:18;;;;;;;3.45;3.22;;;;;;;23.07;35.45;101521.06;4162131;28;20033;-45
2021/06/02 04:07:26;;;;;;;4.20;2.83;;;;;;;23.07;35.82;101518.28;4158462;28;20506;-46
2021/06/02 04:09:29;;;;;;;3.03;2.78;;;;;;;23.08;35.83;101520.78;4162559;28;20033;-46
2021/06/02 04:12:00;;;;;;;3.55;3.17;;;;;;;23.02;35.90;101513.56;4162314;28;20044;-45
2021/06/02 04:14:05;;;;;;;3.72;3.40;;;;;;;23.01;35.76;101517.47;4162020;28;20033;-46
2021/06/02 04:16:14;;;;;;;3.35;3.05;;;;;;;23.03;35.52;101520.81;4165101;28;20231;-45
2021/06/02 04:18:18;;;;;;;4.18;3.22;;;;;;;23.04;35.64;101514.09;4168012;28;20029;-45
2021/06/02 04:20:19;;;;;;;6.55;2.97;;;;;;;22.98;35.80;101521.66;4166945;28;20037;-45
2021/06/02 04:22:22;;;;;;;3.85;3.42;;;;;;;23.01;35.86;101523.06;4164597;28;20030;-45
2021/06/02 04:24:23;;;;;;;4.75;3.70;;;;;;;23.03;35.81;101512.41;4160411;28;20083;-43
2021/06/02 04:26:29;;;;;;;3.28;2.97;;;;;;;23.02;35.78;101524.75;4169064;28;20048;-43
2021/06/02 04:28:34;;;;;;;3.55;2.85;;;;;;;22.96;35.87;101528.69;4163893;28;20033;-45
2021/06/02 04:30:37;;;;;;;4.30;3.10;;;;;;;22.96;35.69;101532.31;4162381;28;20040;-45
2021/06/02 04:32:41;;;;;;;4.00;3.00;;;;;;;22.92;35.70;101517.25;4168222;28;20471;-45
2021/06/02 04:34:43;;;;;;;2.83;2.55;;;;;;;23.01;35.86;101533.41;4162247;28;20200;-45
2021/06/02 04:36:44;;;;;;;3.47;3.03;;;;;;;22.95;35.80;101532.59;4160752;28;20041;-43
2021/06/02 04:38:46;;;;;;;3.08;2.78;;;;;;;22.90;35.92;101525.09;4161392;28;20037;-46
2021/06/02 04:40:47;;;;;;;3.00;2.67;;;;;;;22.94;36.12;101528.97;4164188;28;20049;-46
2021/06/02 04:42:50;;;;;;;3.83;3.30;;;;;;;22.90;35.90;101518.69;4158935;28;20516;-45
2021/06/02 04:44:51;;;;;;;3.38;3.08;;;;;;;22.95;36.06;101524.22;4165574;28;20403;-44
2021/06/02 04:46:51;;;;;;;3.38;3.10;;;;;;;22.97;36.06;101527.56;4170574;28;20037;-45
2021/06/02 04:48:52;;;;;;;3.50;3.20;;;;;;;22.94;35.87;101522.53;4166293;28;20429;-43
2021/06/02 04:51:08;;;;;;;5.60;3.20;;;;;;;22.85;35.87;101524.28;4166676;28;20029;-42
2021/06/02 04:53:47;;;;;;;3.40;3.10;;;;;;;22.89;36.09;101534.59;4163566;28;20037;-42
2021/06/02 04:56:19;;;;;;;3.22;2.58;;;;;;;22.85;36.03;101524.28;4166588;28;20364;-45
2021/06/02 04:59:01;;;;;;;6.43;2.88;;;;;;;22.90;36.03;101518.69;4164486;28;20033;-47
2021/06/02 05:01:35;;;;;;;4.70;2.90;;;;;;;22.93;35.96;101515.31;4152096;28;20045;-45
2021/06/02 05:04:12;;;;;;;3.47;3.05;;;;;;;22.86;36.10;101520.38;4167449;28;20037;-44
2021/06/02 05:06:15;;;;;;;3.30;2.95;;;;;;;22.87;36.15;101525.69;4165540;28;20550;-44
2021/06/02 05:08:53;;;;;;;5.47;3.40;;;;;;;22.85;35.95;101532.66;4170995;28;20479;-44
2021/06/02 05:11:31;;;;;;;3.22;2.70;;;;;;;22.80;36.26;101531.59;4168015;28;20518;-44
2021/06/02 05:13:46;;;;;;;5.00;2.88;;;;;;;22.86;36.07;101521.22;4164929;28;20871;-44
2021/06/02 05:16:24;;;;;;;3.63;3.17;;;;;;;22.85;35.95;101527.94;4168172;28;20040;-44
2021/06/02 05:19:15;;;;;;;3.13;2.83;;;;;;;22.86;36.04;101524.00;4165756;28;20090;-44
2021/06/02 05:24:35;;;;;;;3.47;3.10;;;;;;;22.77;36.07;101528.53;4109219;28;20050;-44
2021/06/02 05:27:12;;;;;;;4.35;3.15;;;;;;;22.93;36.03;101518.94;4148655;28;20042;-44
2021/06/02 05:29:41;;;;;;;2.83;2.63;;;;;;;22.95;35.66;101518.63;4164498;28;20095;-43
2021/06/02 05:32:05;;;;;;;3.15;2.95;;;;;;;22.95;35.69;101525.03;4167213;28;20468;-44
2021/06/02 05:34:08;;;;;;;3.55;2.80;;;;;;;22.81;35.19;101521.25;4161310;28;20036;-43
2021/06/02 05:36:39;;;;;;;2.97;2.78;;;;;;;22.91;35.24;101526.78;4168482;28;20029;-44
2021/06/02 05:39:06;;;;;;;3.13;2.80;;;;;;;22.76;35.59;101516.53;4162709;28;20034;-43
2021/06/02 05:41:13;;;;;;;2.70;2.50;;;;;;;22.94;34.79;101528.97;4164679;28;20061;-43
2021/06/02 05:43:21;;;;;;;2.65;2.15;;;;;;;22.96;35.30;101528.69;4164270;28;20041;-44
2021/06/02 05:45:58;;;;;;;2.88;2.67;;;;;;;22.83;35.50;101530.16;4169581;28;20055;-43
2021/06/02 05:48:20;;;;;;;2.53;2.33;;;;;;;22.65;35.79;101528.00;4164275;28;20132;-43
2021/06/02 05:50:51;;;;;;;4.30;2.58;;;;;;;22.80;34.69;101531.59;4168597;28;20044;-44
2021/06/02 05:53:23;;;;;;;2.90;2.60;;;;;;;22.74;35.48;101531.91;4166040;28;20087;-44
2021/06/02 05:55:44;;;;;;;2.95;2.75;;;;;;;22.69;35.45;101521.59;4169859;28;20041;-44
2021/06/02 05:57:57;;;;;;;3.58;2.70;;;;;;;22.70;35.48;101514.91;4170002;28;20684;-43
2021/06/02 06:00:21;;;;;;;2.40;2.20;;;;;;;22.68;35.40;101517.16;4167549;28;20049;-47
2021/06/02 06:02:46;;;;;;;2.72;2.50;;;;;;;22.66;35.47;101515.78;4165131;28;20061;-45
2021/06/02 06:05:21;;;;;;;4.10;2.55;;;;;;;22.67;35.66;101514.66;4163503;28;20091;-44
2021/06/02 06:07:30;;;;;;;5.90;2.78;;;;;;;22.64;35.61;101513.25;4165828;28;20131;-46
2021/06/02 06:09:42;;;;;;;2.55;2.35;;;;;;;22.77;35.48;101518.22;4169386;28;20033;-46
2021/06/02 06:12:10;;;;;;;3.17;2.50;;;;;;;22.71;35.45;101522.16;4163938;28;20056;-46
2021/06/02 06:14:29;;;;;;;3.35;2.58;;;;;;;22.76;35.58;101526.88;4164145;28;20478;-46
2021/06/02 06:16:58;;;;;;;3.80;2.20;;;;;;;22.70;35.66;101514.09;4167696;28;20021;-46
2021/06/02 06:19:10;;;;;;;4.85;2.35;;;;;;;22.84;35.84;101519.84;4164577;28;20082;-45
2021/06/02 06:21:33;;;;;;;3.00;2.78;;;;;;;22.74;35.59;101518.78;4165682;28;20479;-45
2021/06/02 06:23:36;;;;;;;4.95;2.42;;;;;;;22.81;36.11;101526.84;4165681;28;20468;-43
2021/06/02 06:25:44;;;;;;;4.50;2.70;;;;;;;22.77;35.38;101525.72;4172504;28;20131;-44
2021/06/02 06:27:54;;;;;;;3.38;2.90;;;;;;;22.76;35.39;101524.09;4167078;28;20055;-45
2021/06/02 06:30:09;;;;;;;3.15;2.90;;;;;;;22.84;35.95;101531.00;4161462;28;20041;-44
2021/06/02 06:32:09;;;;;;;3.75;2.60;;;;;;;22.79;35.80;101524.34;4159389;28;20041;-46
2021/06/02 06:34:14;;;;;;;3.58;2.47;;;;;;;22.77;35.64;101526.59;4163566;28;20430;-47
2021/06/02 06:36:18;;;;;;;4.90;2.80;;;;;;;22.77;35.82;101518.22;4163849;28;20033;-44
2021/06/02 06:38:40;;;;;;;5.32;2.70;;;;;;;22.78;35.95;101522.66;4161839;28;20072;-44
2021/06/02 06:40:41;;;;;;;2.97;2.65;;;;;;;22.83;35.68;101519.00;4170425;28;20041;-46
2021/06/02 06:42:44;;;;;;;3.10;2.78;;;;;;;22.80;36.25;101517.63;4170641;28;20033;-46
2021/06/02 06:44:46;;;;;;;3.42;3.08;;;;;;;22.76;36.07;101508.16;4164468;28;20029;-45
2021/06/02 06:46:48;;;;;;;3.20;2.45;;;;;;;22.85;35.95;101515.91;4162459;28;20087;-47
2021/06/02 06:48:50;;;;;;;3.38;2.80;;;;;;;22.86;35.89;101526.78;4170011;28;20037;-44
2021/06/02 06:50:57;;;;;;;3.78;2.42;;;;;;;22.86;36.04;101512.00;4165604;28;20056;-44
2021/06/02 06:53:01;;;;;;;4.30;2.67;;;;;;;22.82;36.04;101516.50;4167613;28;20032;-44
2021/06/02 06:55:05;;;;;;;3.55;2.45;;;;;;;22.86;36.27;101514.81;4164379;28;20029;-44
2021/06/02 06:57:06;;;;;;;3.30;2.95;;;;;;;22.89;36.24;101509.47;4163910;28;20095;-46
2021/06/02 06:59:07;;;;;;;2.50;2.30;;;;;;;22.88;35.94;101516.19;4172682;28;20152;-45
2021/06/02 07:01:07;;;;;;;2.97;2.50;;;;;;;22.92;35.68;101500.50;4164401;28;20088;-44
2021/06/02 07:03:08;;;;;;;2.70;2.50;;;;;;;22.90;35.92;101499.97;4170131;28;20025;-44
2021/06/02 07:05:10;;;;;;;4.20;2.33;;;;;;;22.95;36.19;101499.09;4167790;28;20068;-43
2021/06/02 07:07:14;;;;;;;2.38;2.17;;;;;;;22.87;35.71;101494.97;4163021;28;20032;-45
2021/06/02 07:09:15;;;;;;;2.50;2.30;;;;;;;22.93;35.74;101504.97;4163845;28;20321;-44
2021/06/02 07:11:20;;;;;;;2.67;2.17;;;;;;;22.93;36.01;101495.78;4163981;28;20060;-48
2021/06/02 07:13:23;;;;;;;4.20;2.63;;;;;;;23.03;35.98;101506.84;4163484;28;20463;-46
2021/06/02 07:15:25;;;;;;;2.83;2.63;;;;;;;23.03;36.07;101503.22;4166291;28;20025;-44
2021/06/02 07:17:26;;;;;;;5.00;2.80;;;;;;;22.82;36.62;101467.09;4165815;28;20136;-46
2021/06/02 07:19:27;;;;;;;2.95;2.72;;;;;;;22.99;35.99;101500.19;4167128;28;20041;-44
2021/06/02 07:21:29;;;;;;;2.20;2.00;;;;;;;23.03;35.71;101497.63;4165512;28;20041;-46
2021/06/02 07:23:31;;;;;;;2.47;2.00;;;;;;;22.96;36.22;101484.84;4164848;28;20671;-46
2021/06/02 07:25:33;;;;;;;2.95;2.40;;;;;;;22.96;36.56;101484.84;4166682;28;20107;-49
2021/06/02 07:27:35;;;;;;;2.85;2.63;;;;;;;23.04;35.75;101486.19;4165828;28;20040;-45
2021/06/02 07:29:36;;;;;;;4.03;2.42;;;;;;;23.07;35.87;101493.16;4170239;28;20052;-45
2021/06/02 07:31:36;;;;;;;2.33;2.13;;;;;;;23.00;35.81;101489.84;4163669;28;20048;-47
2021/06/02 07:33:37;;;;;;;3.20;2.67;;;;;;;23.07;35.81;101490.34;4167686;28;20029;-46
2021/06/02 07:35:38;;;;;;;2.13;1.92;;;;;;;23.04;35.85;101490.94;4165242;28;20038;-46
2021/06/02 07:37:38;;;;;;;2.40;2.20;;;;;;;23.10;35.99;101490.59;4165274;28;20026;-44
2021/06/02 07:39:38;;;;;;;1.88;1.77;;;;;;;23.08;36.32;101492.84;4171923;28;20033;-44
2021/06/02 07:41:39;;;;;;;2.28;2.08;;;;;;;23.12;35.59;101496.72;4161506;28;20034;-45
2021/06/02 07:43:39;;;;;;;3.00;2.00;;;;;;;23.09;36.03;101496.47;4165632;28;20367;-46
2021/06/02 07:45:40;;;;;;;2.42;2.20;;;;;;;23.11;35.87;101497.00;4163281;28;20631;-46
2021/06/02 07:47:40;;;;;;;2.22;2.10;;;;;;;23.06;36.18;101497.88;4164079;28;20493;-47
2021/06/02 07:49:41;;;;;;;2.80;2.38;;;;;;;23.12;35.93;101493.09;4167407;28;20509;-45
2021/06/02 07:51:41;;;;;;;2.92;2.70;;;;;;;23.10;35.81;101490.59;4168001;28;20032;-46
2021/06/02 07:53:42;;;;;;;2.92;2.20;;;;;;;23.11;36.22;101478.31;4148657;28;20030;-48
2021/06/02 07:55:42;;;;;;;2.38;2.20;;;;;;;23.06;36.44;101485.88;4166683;28;20033;-45
2021/06/02 07:57:43;;;;;;;2.20;2.00;;;;;;;23.15;36.17;101486.94;4162507;28;20029;-44
2021/06/02 07:59:43;;;;;;;2.97;2.20;;;;;;;23.16;36.19;101492.22;4167317;28;20443;-43
2021/06/02 08:01:46;;;;;;;2.30;2.10;;;;;;;23.20;36.09;101489.66;4166015;28;20757;-44
2021/06/02 08:03:46;;;;;;;3.97;2.38;;;;;;;23.13;36.11;101490.00;4163288;28;20978;-43
2021/06/02 08:05:47;;;;;;;2.88;2.58;;;;;;;23.22;36.00;101495.81;4164627;28;20402;-44
2021/06/02 08:07:47;;;;;;;5.95;2.10;;;;;;;23.22;35.69;101497.75;4158264;28;20037;-43
2021/06/02 08:09:50;;;;;;;3.72;2.15;;;;;;;23.22;36.12;101500.53;4161252;28;20022;-45
2021/06/02 08:11:51;;;;;;;4.18;2.08;;;;;;;23.20;36.20;101492.44;4167782;28;20437;-44
2021/06/02 08:13:51;;;;;;;2.95;2.30;;;;;;;23.24;36.12;101495.50;4161305;28;20030;-44
2021/06/02 08:15:52;;;;;;;4.07;2.00;;;;;;;23.24;36.31;101506.69;4166882;28;20499;-45
2021/06/02 08:17:52;;;;;;;2.63;2.00;;;;;;;23.27;36.37;101501.34;4169672;28;20494;-43
2021/06/02 08:19:53;;;;;;;2.60;2.40;;;;;;;23.25;35.95;101492.44;4176970;28;20037;-44
2021/06/02 08:21:53;;;;;;;2.95;2.00;;;;;;;23.23;36.42;101493.84;4166827;28;20033;-44
2021/06/02 08:23:54;;;;;;;2.55;2.20;;;;;;;23.26;36.58;101501.63;4169665;28;20124;-43
2021/06/02 08:25:54;;;;;;;3.83;2.42;;;;;;;22.80;36.04;101419.94;4175009;28;20049;-44
2021/06/02 08:27:55;;;;;;;8.65;2.20;;;;;;;23.32;36.17;101508.88;4166649;28;20441;-44
2021/06/02 08:29:55;;;;;;;2.63;2.17;;;;;;;23.35;36.31;101510.25;4172206;28;20082;-44
2021/06/02 08:31:56;;;;;;;2.33;2.05;;;;;;;23.39;36.04;101506.56;4172030;28;20087;-44
2021/06/02 08:33:58;;;;;;;4.97;2.35;;;;;;;23.27;35.92;101494.94;4163798;28;20037;-44
2021/06/02 08:35:59;;;;;;;2.60;2.00;;;;;;;23.42;35.99;101514.38;4168105;28;20391;-44
2021/06/02 08:38:01;;;;;;;3.00;2.60;;;;;;;23.50;36.27;101510.91;4167070;28;20119;-45
2021/06/02 08:40:03;;;;;;;2.97;2.30;;;;;;;23.46;36.21;101509.00;4164305;28;20051;-44
2021/06/02 08:42:04;;;;;;;3.13;2.67;;;;;;;23.55;36.13;101506.41;4164659;28;20491;-44
2021/06/02 08:44:05;;;;;;;3.38;2.72;;;;;;;23.62;36.46;101502.16;4163881;28;20041;-44
2021/06/02 08:46:06;;;;;;;4.75;3.25;;;;;;;23.56;37.35;101499.69;4163702;28;20180;-43
2021/06/02 08:48:07;;;;;;;5.35;3.17;;;;;;;23.43;37.64;101510.44;4168076;28;20064;-44
2021/06/02 08:50:09;;;;;;;7.43;4.10;;;;;;;23.59;37.50;101502.75;4165596;28;20266;-45
2021/06/02 08:52:10;;;;;;;7.72;3.88;;;;;;;23.44;37.19;101495.34;4163559;28;20029;-45
2021/06/02 08:54:10;;;;;;;4.82;2.97;;;;;;;23.54;36.91;101497.19;4166234;28;20498;-44
2021/06/02 08:56:11;;;;;;;17.75;4.32;;;;;;;23.56;37.03;101502.47;4165441;28;20029;-44
2021/06/02 08:58:22;;;;;;;13.75;3.10;;;;;;;23.55;37.68;101489.66;4166583;28;20480;-44
2021/06/02 09:00:24;;;;;;;14.35;3.20;;;;;;;23.59;36.42;101497.16;4164634;28;20198;-45
2021/06/02 09:02:24;;;;;;;8.43;2.55;;;;;;;23.62;36.16;101496.56;4164662;28;20025;-45
2021/06/02 09:04:27;;;;;;;10.30;2.70;;;;;;;23.68;37.11;101500.97;4168492;28;20370;-46
2021/06/02 09:06:28;;;;;;;7.68;3.00;;;;;;;23.60;36.71;101501.59;4164130;28;20037;-46
2021/06/02 09:08:28;;;;;;;13.45;2.72;;;;;;;23.79;37.06;101509.22;4165366;28;20045;-44
2021/06/02 09:10:29;;;;;;;11.07;3.30;;;;;;;23.75;36.91;101496.97;4165413;28;21196;-44
2021/06/02 09:12:35;;;;;;;4.65;3.05;;;;;;;23.86;36.71;101499.34;4162522;28;20038;-44
2021/06/02 09:14:38;;;;;;;8.00;2.78;;;;;;;23.94;36.45;101509.03;4163433;28;20041;-47
2021/06/02 09:16:47;;;;;;;5.28;2.72;;;;;;;23.93;36.29;101506.53;4166220;28;20557;-46
2021/06/02 09:18:59;;;;;;;4.90;2.60;;;;;;;23.98;36.65;101504.56;4166687;28;20041;-47
2021/06/02 09:20:59;;;;;;;5.28;2.58;;;;;;;23.97;36.45;101510.44;4167197;28;20155;-45
2021/06/02 09:23:00;;;;;;;5.13;2.60;;;;;;;23.94;36.19;101513.81;4163890;28;20059;-46
2021/06/02 09:25:02;;;;;;;3.80;2.50;;;;;;;24.00;37.18;101504.25;4162843;28;20041;-46
2021/06/02 09:27:03;;;;;;;2.42;2.15;;;;;;;23.98;36.44;101486.94;4164673;28;20021;-46
2021/06/02 09:29:09;;;;;;;4.60;2.40;;;;;;;24.10;36.85;101501.34;4161230;28;20037;-45
2021/06/02 09:31:19;;;;;;;2.50;2.17;;;;;;;24.14;36.78;101507.16;4162412;28;20099;-45
2021/06/02 09:33:19;;;;;;;4.50;2.40;;;;;;;24.12;36.84;101507.47;4162386;28;20047;-45
2021/06/02 09:35:20;;;;;;;4.78;2.72;;;;;;;24.19;36.64;101502.34;4164530;28;20458;-44
2021/06/02 09:37:21;;;;;;;4.30;2.33;;;;;;;24.16;36.16;101500.16;4165306;28;20029;-46
2021/06/02 09:39:23;;;;;;;3.90;2.30;;;;;;;24.24;36.79;101501.44;4163275;28;20041;-49
2021/06/02 09:41:23;;;;;;;4.40;2.28;;;;;;;24.22;36.28;101506.47;4166934;28;20094;-45
2021/06/02 09:43:34;;;;;;;6.97;2.28;;;;;;;24.27;36.35;101497.19;4167705;28;20041;-46
2021/06/02 09:45:35;;;;;;;4.03;2.20;;;;;;;24.29;36.41;101498.56;4167610;28;20040;-46
2021/06/02 09:48:04;;;;;;;3.05;2.50;;;;;;;24.38;36.33;101493.97;4166336;28;20059;-46
2021/06/02 09:50:05;;;;;;;3.13;2.63;;;;;;;24.44;36.72;101488.28;4157113;28;20138;-44
2021/06/02 09:52:06;;;;;;;3.35;1.88;;;;;;;24.39;36.71;101498.44;4167300;28;20034;-45
2021/06/02 09:54:08;;;;;;;3.85;2.50;;;;;;;24.39;36.77;101489.19;4166933;28;20045;-45
2021/06/02 09:56:09;;;;;;;3.35;2.30;;;;;;;24.45;36.68;101482.38;4162460;28;20029;-44
2021/06/02 09:58:13;;;;;;;3.28;1.92;;;;;;;24.45;36.86;101484.34;4164772;28;20393;-43
2021/06/02 10:00:15;;;;;;;3.63;2.55;;;;;;;24.50;36.65;101487.06;4166766;28;20060;-45
2021/06/02 10:02:15;;;;;;;3.80;2.60;;;;;;;24.55;35.93;101493.44;4165033;28;20061;-46
2021/06/02 10:04:16;;;;;;;3.17;2.13;;;;;;;24.55;36.27;101496.22;4165952;28;20549;-44
2021/06/02 10:06:16;;;;;;;1.88;1.70;;;;;;;24.59;36.75;101479.69;4165147;28;20033;-46